sensor_id;sensor_type;location;lat;lon;timestamp;P1;durP1;ratioP1;P2;durP2;ratioP2
57655;SDS011;43482;53.334;6.744;2022-08-02T00:02:17;1.65;;;1.30;;
57655;SDS011;43482;53.334;6.744;2022-08-02T00:04:43;3.65;;;1.52;;
57655;SDS011;43482;53.334;6.744;2022-08-02T00:07:08;1.50;;;1.20;;
57655;SDS011;43482;53.334;6.744;2022-08-02T00:09:33;3.15;;;1.33;;
57655;SDS011;43482;53.334;6.744;2022-08-02T00:11:59;5.75;;;1.27;;
57655;SDS011;43482;53.334;6.744;2022-08-02T00:14:25;4.57;;;1.45;;
57655;SDS011;43482;53.334;6.744;2022-08-02T00:16:50;1.73;;;1.27;;
57655;SDS011;43482;53.334;6.744;2022-08-02T00:19:16;3.95;;;1.08;;
57655;SDS011;43482;53.334;6.744;2022-08-02T00:21:41;2.95;;;1.25;;
57655;SDS011;43482;53.334;6.744;2022-08-02T00:24:07;1.63;;;0.82;;
57655;SDS011;43482;53.334;6.744;2022-08-02T00:26:32;5.53;;;1.67;;
57655;SDS011;43482;53.334;6.744;2022-08-02T00:28:58;2.10;;;1.73;;
57655;SDS011;43482;53.334;6.744;2022-08-02T00:31:23;0.75;;;0.55;;
57655;SDS011;43482;53.334;6.744;2022-08-02T00:33:49;2.28;;;1.25;;
57655;SDS011;43482;53.334;6.744;2022-08-02T00:36:14;2.95;;;1.23;;
57655;SDS011;43482;53.334;6.744;2022-08-02T00:38:39;1.95;;;0.90;;
57655;SDS011;43482;53.334;6.744;2022-08-02T00:41:10;2.05;;;1.02;;
57655;SDS011;43482;53.334;6.744;2022-08-02T00:43:37;1.73;;;1.05;;
57655;SDS011;43482;53.334;6.744;2022-08-02T00:46:02;4.20;;;2.10;;
57655;SDS011;43482;53.334;6.744;2022-08-02T00:48:28;1.85;;;1.75;;
57655;SDS011;43482;53.334;6.744;2022-08-02T00:50:53;3.45;;;1.35;;
57655;SDS011;43482;53.334;6.744;2022-08-02T00:53:20;1.80;;;1.08;;
57655;SDS011;43482;53.334;6.744;2022-08-02T00:55:45;1.98;;;1.27;;
57655;SDS011;43482;53.334;6.744;2022-08-02T00:58:11;5.82;;;1.70;;
57655;SDS011;43482;53.334;6.744;2022-08-02T01:00:36;6.57;;;1.77;;
57655;SDS011;43482;53.334;6.744;2022-08-02T01:03:02;2.83;;;1.25;;
57655;SDS011;43482;53.334;6.744;2022-08-02T01:05:27;1.48;;;0.80;;
57655;SDS011;43482;53.334;6.744;2022-08-02T01:07:53;1.40;;;1.00;;
57655;SDS011;43482;53.334;6.744;2022-08-02T01:10:18;1.42;;;1.00;;
57655;SDS011;43482;53.334;6.744;2022-08-02T01:12:44;1.20;;;0.90;;
57655;SDS011;43482;53.334;6.744;2022-08-02T01:15:11;1.45;;;0.95;;
57655;SDS011;43482;53.334;6.744;2022-08-02T01:25:52;2.28;;;1.23;;
57655;SDS011;43482;53.334;6.744;2022-08-02T01:28:40;0.88;;;0.68;;
57655;SDS011;43482;53.334;6.744;2022-08-02T01:31:31;1.38;;;0.98;;
57655;SDS011;43482;53.334;6.744;2022-08-02T01:36:44;7.43;;;1.38;;
57655;SDS011;43482;53.334;6.744;2022-08-02T01:39:14;2.35;;;1.27;;
57655;SDS011;43482;53.334;6.744;2022-08-02T01:41:43;3.33;;;1.13;;
57655;SDS011;43482;53.334;6.744;2022-08-02T01:44:10;2.10;;;1.23;;
57655;SDS011;43482;53.334;6.744;2022-08-02T01:46:38;1.48;;;0.90;;
57655;SDS011;43482;53.334;6.744;2022-08-02T01:49:06;3.42;;;1.40;;
57655;SDS011;43482;53.334;6.744;2022-08-02T01:51:39;2.28;;;0.80;;
57655;SDS011;43482;53.334;6.744;2022-08-02T01:54:26;1.15;;;0.63;;
57655;SDS011;43482;53.334;6.744;2022-08-02T01:56:55;1.13;;;0.70;;
57655;SDS011;43482;53.334;6.744;2022-08-02T01:59:23;1.02;;;0.82;;
57655;SDS011;43482;53.334;6.744;2022-08-02T02:01:50;1.90;;;1.00;;
57655;SDS011;43482;53.334;6.744;2022-08-02T02:04:19;1.70;;;0.82;;
57655;SDS011;43482;53.334;6.744;2022-08-02T02:06:46;4.82;;;1.23;;
57655;SDS011;43482;53.334;6.744;2022-08-02T02:09:13;4.03;;;1.15;;
57655;SDS011;43482;53.334;6.744;2022-08-02T02:11:43;1.38;;;1.10;;
57655;SDS011;43482;53.334;6.744;2022-08-02T02:14:10;3.08;;;1.00;;
57655;SDS011;43482;53.334;6.744;2022-08-02T02:16:38;1.55;;;1.17;;
57655;SDS011;43482;53.334;6.744;2022-08-02T02:19:06;2.03;;;0.90;;
57655;SDS011;43482;53.334;6.744;2022-08-02T02:21:33;0.77;;;0.77;;
57655;SDS011;43482;53.334;6.744;2022-08-02T02:23:59;4.88;;;1.75;;
57655;SDS011;43482;53.334;6.744;2022-08-02T02:26:24;3.60;;;1.80;;
57655;SDS011;43482;53.334;6.744;2022-08-02T02:28:52;2.55;;;1.23;;
57655;SDS011;43482;53.334;6.744;2022-08-02T02:31:20;1.83;;;1.25;;
57655;SDS011;43482;53.334;6.744;2022-08-02T02:33:50;9.60;;;1.15;;
57655;SDS011;43482;53.334;6.744;2022-08-02T02:36:20;5.72;;;1.10;;
57655;SDS011;43482;53.334;6.744;2022-08-02T02:38:46;1.85;;;0.68;;
57655;SDS011;43482;53.334;6.744;2022-08-02T02:41:13;1.65;;;1.05;;
57655;SDS011;43482;53.334;6.744;2022-08-02T02:43:42;4.78;;;0.95;;
57655;SDS011;43482;53.334;6.744;2022-08-02T02:46:09;5.22;;;1.42;;
57655;SDS011;43482;53.334;6.744;2022-08-02T02:48:35;1.63;;;0.82;;
57655;SDS011;43482;53.334;6.744;2022-08-02T02:51:05;2.05;;;0.93;;
57655;SDS011;43482;53.334;6.744;2022-08-02T02:53:34;5.32;;;1.98;;
57655;SDS011;43482;53.334;6.744;2022-08-02T02:56:00;4.32;;;1.17;;
57655;SDS011;43482;53.334;6.744;2022-08-02T02:58:26;1.80;;;0.98;;
57655;SDS011;43482;53.334;6.744;2022-08-02T03:00:52;2.08;;;1.10;;
57655;SDS011;43482;53.334;6.744;2022-08-02T03:03:37;1.58;;;1.05;;
57655;SDS011;43482;53.334;6.744;2022-08-02T03:06:02;2.97;;;1.27;;
57655;SDS011;43482;53.334;6.744;2022-08-02T03:08:28;1.80;;;1.38;;
57655;SDS011;43482;53.334;6.744;2022-08-02T03:10:54;1.77;;;1.50;;
57655;SDS011;43482;53.334;6.744;2022-08-02T03:13:19;1.35;;;1.20;;
57655;SDS011;43482;53.334;6.744;2022-08-02T03:15:45;4.57;;;1.42;;
57655;SDS011;43482;53.334;6.744;2022-08-02T03:18:34;3.17;;;1.77;;
57655;SDS011;43482;53.334;6.744;2022-08-02T03:21:02;1.38;;;0.80;;
57655;SDS011;43482;53.334;6.744;2022-08-02T03:23:29;2.03;;;1.02;;
57655;SDS011;43482;53.334;6.744;2022-08-02T03:25:55;1.83;;;1.08;;
57655;SDS011;43482;53.334;6.744;2022-08-02T03:28:20;3.20;;;1.38;;
57655;SDS011;43482;53.334;6.744;2022-08-02T03:30:46;1.10;;;0.80;;
57655;SDS011;43482;53.334;6.744;2022-08-02T03:33:11;2.65;;;1.35;;
57655;SDS011;43482;53.334;6.744;2022-08-02T03:35:37;8.32;;;1.45;;
57655;SDS011;43482;53.334;6.744;2022-08-02T03:38:05;3.17;;;1.67;;
57655;SDS011;43482;53.334;6.744;2022-08-02T03:40:32;1.67;;;1.00;;
57655;SDS011;43482;53.334;6.744;2022-08-02T03:42:57;4.25;;;1.35;;
57655;SDS011;43482;53.334;6.744;2022-08-02T03:45:24;4.55;;;1.38;;
57655;SDS011;43482;53.334;6.744;2022-08-02T03:47:50;1.90;;;1.52;;
57655;SDS011;43482;53.334;6.744;2022-08-02T03:50:16;1.63;;;1.23;;
57655;SDS011;43482;53.334;6.744;2022-08-02T03:52:44;7.88;;;1.92;;
57655;SDS011;43482;53.334;6.744;2022-08-02T03:55:10;7.82;;;1.90;;
57655;SDS011;43482;53.334;6.744;2022-08-02T03:57:37;4.90;;;1.60;;
57655;SDS011;43482;53.334;6.744;2022-08-02T04:00:07;2.13;;;1.45;;
57655;SDS011;43482;53.334;6.744;2022-08-02T04:02:34;3.30;;;1.65;;
57655;SDS011;43482;53.334;6.744;2022-08-02T04:05:00;3.08;;;1.08;;
57655;SDS011;43482;53.334;6.744;2022-08-02T04:07:25;6.75;;;1.15;;
57655;SDS011;43482;53.334;6.744;2022-08-02T04:09:51;3.58;;;1.80;;
57655;SDS011;43482;53.334;6.744;2022-08-02T04:12:16;1.42;;;1.13;;
57655;SDS011;43482;53.334;6.744;2022-08-02T04:14:41;5.35;;;2.67;;
57655;SDS011;43482;53.334;6.744;2022-08-02T04:17:07;3.30;;;1.92;;
57655;SDS011;43482;53.334;6.744;2022-08-02T04:22:03;2.10;;;1.60;;
57655;SDS011;43482;53.334;6.744;2022-08-02T04:24:38;9.98;;;1.85;;
57655;SDS011;43482;53.334;6.744;2022-08-02T04:27:08;3.10;;;0.70;;
57655;SDS011;43482;53.334;6.744;2022-08-02T04:29:34;2.75;;;1.58;;
57655;SDS011;43482;53.334;6.744;2022-08-02T04:32:01;4.60;;;1.65;;
57655;SDS011;43482;53.334;6.744;2022-08-02T04:34:28;3.95;;;2.60;;
57655;SDS011;43482;53.334;6.744;2022-08-02T04:36:55;2.13;;;1.63;;
57655;SDS011;43482;53.334;6.744;2022-08-02T04:39:21;2.60;;;1.65;;
57655;SDS011;43482;53.334;6.744;2022-08-02T04:41:46;1.85;;;1.30;;
57655;SDS011;43482;53.334;6.744;2022-08-02T04:44:12;2.88;;;1.40;;
57655;SDS011;43482;53.334;6.744;2022-08-02T04:46:38;4.45;;;2.08;;
57655;SDS011;43482;53.334;6.744;2022-08-02T04:49:04;1.10;;;0.90;;
57655;SDS011;43482;53.334;6.744;2022-08-02T04:51:32;2.88;;;1.50;;
57655;SDS011;43482;53.334;6.744;2022-08-02T04:53:59;2.50;;;1.75;;
57655;SDS011;43482;53.334;6.744;2022-08-02T04:56:24;3.38;;;1.98;;
57655;SDS011;43482;53.334;6.744;2022-08-02T04:58:50;4.47;;;1.88;;
57655;SDS011;43482;53.334;6.744;2022-08-02T05:01:15;2.95;;;1.58;;
57655;SDS011;43482;53.334;6.744;2022-08-02T05:03:40;3.35;;;1.38;;
57655;SDS011;43482;53.334;6.744;2022-08-02T05:06:06;6.15;;;1.55;;
57655;SDS011;43482;53.334;6.744;2022-08-02T05:08:31;2.50;;;1.40;;
57655;SDS011;43482;53.334;6.744;2022-08-02T05:10:56;1.58;;;1.13;;
57655;SDS011;43482;53.334;6.744;2022-08-02T05:13:22;4.90;;;2.72;;
57655;SDS011;43482;53.334;6.744;2022-08-02T05:15:48;9.10;;;2.85;;
57655;SDS011;43482;53.334;6.744;2022-08-02T05:18:14;9.60;;;2.00;;
57655;SDS011;43482;53.334;6.744;2022-08-02T05:20:39;2.67;;;2.33;;
57655;SDS011;43482;53.334;6.744;2022-08-02T05:23:05;2.95;;;1.73;;
57655;SDS011;43482;53.334;6.744;2022-08-02T05:25:30;8.38;;;1.67;;
57655;SDS011;43482;53.334;6.744;2022-08-02T05:27:56;4.05;;;1.90;;
57655;SDS011;43482;53.334;6.744;2022-08-02T05:30:21;1.70;;;1.60;;
57655;SDS011;43482;53.334;6.744;2022-08-02T05:32:47;2.25;;;1.60;;
57655;SDS011;43482;53.334;6.744;2022-08-02T05:35:18;5.38;;;1.80;;
57655;SDS011;43482;53.334;6.744;2022-08-02T05:37:45;3.13;;;1.67;;
57655;SDS011;43482;53.334;6.744;2022-08-02T05:40:11;4.05;;;1.50;;
57655;SDS011;43482;53.334;6.744;2022-08-02T05:42:37;6.90;;;2.22;;
57655;SDS011;43482;53.334;6.744;2022-08-02T05:45:03;2.15;;;1.38;;
57655;SDS011;43482;53.334;6.744;2022-08-02T05:47:29;2.15;;;1.40;;
57655;SDS011;43482;53.334;6.744;2022-08-02T05:49:54;1.73;;;1.60;;
57655;SDS011;43482;53.334;6.744;2022-08-02T05:52:20;7.97;;;3.20;;
57655;SDS011;43482;53.334;6.744;2022-08-02T05:54:53;2.65;;;1.95;;
57655;SDS011;43482;53.334;6.744;2022-08-02T06:00:11;2.97;;;1.35;;
57655;SDS011;43482;53.334;6.744;2022-08-02T06:05:05;8.82;;;1.80;;
57655;SDS011;43482;53.334;6.744;2022-08-02T06:07:35;3.08;;;1.23;;
57655;SDS011;43482;53.334;6.744;2022-08-02T06:10:05;3.13;;;1.95;;
57655;SDS011;43482;53.334;6.744;2022-08-02T06:12:32;1.80;;;1.33;;
57655;SDS011;43482;53.334;6.744;2022-08-02T06:15:05;4.25;;;1.60;;
57655;SDS011;43482;53.334;6.744;2022-08-02T06:17:31;2.08;;;1.60;;
57655;SDS011;43482;53.334;6.744;2022-08-02T06:19:56;2.17;;;1.70;;
57655;SDS011;43482;53.334;6.744;2022-08-02T06:22:24;2.42;;;1.88;;
57655;SDS011;43482;53.334;6.744;2022-08-02T06:24:51;5.40;;;1.83;;
57655;SDS011;43482;53.334;6.744;2022-08-02T06:27:19;5.97;;;1.75;;
57655;SDS011;43482;53.334;6.744;2022-08-02T06:29:45;3.78;;;1.98;;
57655;SDS011;43482;53.334;6.744;2022-08-02T06:32:16;2.45;;;1.65;;
57655;SDS011;43482;53.334;6.744;2022-08-02T06:34:43;2.95;;;1.77;;
57655;SDS011;43482;53.334;6.744;2022-08-02T06:39:51;5.35;;;1.90;;
57655;SDS011;43482;53.334;6.744;2022-08-02T06:42:25;3.95;;;1.58;;
57655;SDS011;43482;53.334;6.744;2022-08-02T06:45:08;10.25;;;2.47;;
57655;SDS011;43482;53.334;6.744;2022-08-02T06:47:34;2.20;;;1.70;;
57655;SDS011;43482;53.334;6.744;2022-08-02T06:49:59;3.55;;;1.67;;
57655;SDS011;43482;53.334;6.744;2022-08-02T06:52:25;1.75;;;1.25;;
57655;SDS011;43482;53.334;6.744;2022-08-02T06:54:52;6.32;;;1.95;;
57655;SDS011;43482;53.334;6.744;2022-08-02T06:57:17;5.28;;;1.92;;
57655;SDS011;43482;53.334;6.744;2022-08-02T06:59:43;2.13;;;1.13;;
57655;SDS011;43482;53.334;6.744;2022-08-02T07:02:08;4.80;;;1.88;;
57655;SDS011;43482;53.334;6.744;2022-08-02T07:04:36;3.67;;;1.30;;
57655;SDS011;43482;53.334;6.744;2022-08-02T07:07:01;4.20;;;1.08;;
57655;SDS011;43482;53.334;6.744;2022-08-02T07:09:26;2.15;;;1.17;;
57655;SDS011;43482;53.334;6.744;2022-08-02T07:11:52;4.28;;;1.23;;
57655;SDS011;43482;53.334;6.744;2022-08-02T07:14:17;4.35;;;1.40;;
57655;SDS011;43482;53.334;6.744;2022-08-02T07:16:43;3.97;;;1.95;;
57655;SDS011;43482;53.334;6.744;2022-08-02T07:19:08;1.77;;;0.98;;
57655;SDS011;43482;53.334;6.744;2022-08-02T07:21:33;1.40;;;1.10;;
57655;SDS011;43482;53.334;6.744;2022-08-02T07:23:59;3.85;;;1.10;;
57655;SDS011;43482;53.334;6.744;2022-08-02T07:26:24;3.13;;;1.38;;
57655;SDS011;43482;53.334;6.744;2022-08-02T07:28:49;2.75;;;1.23;;
57655;SDS011;43482;53.334;6.744;2022-08-02T07:31:15;7.93;;;1.60;;
57655;SDS011;43482;53.334;6.744;2022-08-02T07:33:40;3.70;;;1.05;;
57655;SDS011;43482;53.334;6.744;2022-08-02T07:36:06;2.83;;;0.75;;
57655;SDS011;43482;53.334;6.744;2022-08-02T07:38:33;2.28;;;1.13;;
57655;SDS011;43482;53.334;6.744;2022-08-02T07:40:58;3.03;;;0.90;;
57655;SDS011;43482;53.334;6.744;2022-08-02T07:43:23;5.13;;;1.10;;
57655;SDS011;43482;53.334;6.744;2022-08-02T07:45:49;5.75;;;1.27;;
57655;SDS011;43482;53.334;6.744;2022-08-02T07:48:14;3.90;;;0.80;;
57655;SDS011;43482;53.334;6.744;2022-08-02T07:50:39;4.30;;;1.25;;
57655;SDS011;43482;53.334;6.744;2022-08-02T07:53:05;2.65;;;1.15;;
57655;SDS011;43482;53.334;6.744;2022-08-02T07:55:30;1.25;;;0.70;;
57655;SDS011;43482;53.334;6.744;2022-08-02T07:57:55;6.05;;;0.80;;
57655;SDS011;43482;53.334;6.744;2022-08-02T08:00:21;3.70;;;0.98;;
57655;SDS011;43482;53.334;6.744;2022-08-02T08:02:46;2.88;;;0.63;;
57655;SDS011;43482;53.334;6.744;2022-08-02T08:05:12;2.42;;;0.93;;
57655;SDS011;43482;53.334;6.744;2022-08-02T08:07:38;2.72;;;0.90;;
57655;SDS011;43482;53.334;6.744;2022-08-02T08:10:04;3.50;;;1.20;;
57655;SDS011;43482;53.334;6.744;2022-08-02T08:12:30;1.38;;;0.55;;
57655;SDS011;43482;53.334;6.744;2022-08-02T08:14:55;1.20;;;0.52;;
57655;SDS011;43482;53.334;6.744;2022-08-02T08:17:21;3.15;;;1.15;;
57655;SDS011;43482;53.334;6.744;2022-08-02T08:19:46;2.72;;;1.05;;
57655;SDS011;43482;53.334;6.744;2022-08-02T08:22:13;1.98;;;0.80;;
57655;SDS011;43482;53.334;6.744;2022-08-02T08:24:38;0.60;;;0.38;;
57655;SDS011;43482;53.334;6.744;2022-08-02T08:27:04;1.20;;;0.60;;
57655;SDS011;43482;53.334;6.744;2022-08-02T08:29:30;4.22;;;1.05;;
57655;SDS011;43482;53.334;6.744;2022-08-02T08:31:55;1.77;;;0.55;;
57655;SDS011;43482;53.334;6.744;2022-08-02T08:34:20;3.15;;;1.00;;
57655;SDS011;43482;53.334;6.744;2022-08-02T08:36:48;3.42;;;0.63;;
57655;SDS011;43482;53.334;6.744;2022-08-02T08:39:13;1.52;;;0.38;;
57655;SDS011;43482;53.334;6.744;2022-08-02T08:41:40;1.65;;;0.70;;
57655;SDS011;43482;53.334;6.744;2022-08-02T08:44:07;0.95;;;0.60;;
57655;SDS011;43482;53.334;6.744;2022-08-02T08:46:34;2.60;;;0.85;;
57655;SDS011;43482;53.334;6.744;2022-08-02T08:52:03;2.05;;;0.68;;
57655;SDS011;43482;53.334;6.744;2022-08-02T08:54:30;2.72;;;0.80;;
57655;SDS011;43482;53.334;6.744;2022-08-02T08:56:57;2.83;;;0.77;;
57655;SDS011;43482;53.334;6.744;2022-08-02T08:59:23;1.60;;;0.55;;
57655;SDS011;43482;53.334;6.744;2022-08-02T09:01:49;1.40;;;0.80;;
57655;SDS011;43482;53.334;6.744;2022-08-02T09:04:15;1.17;;;0.60;;
57655;SDS011;43482;53.334;6.744;2022-08-02T09:06:42;0.63;;;0.30;;
57655;SDS011;43482;53.334;6.744;2022-08-02T09:09:07;0.80;;;0.50;;
57655;SDS011;43482;53.334;6.744;2022-08-02T09:11:33;2.15;;;0.82;;
57655;SDS011;43482;53.334;6.744;2022-08-02T09:13:59;1.00;;;0.50;;
57655;SDS011;43482;53.334;6.744;2022-08-02T09:19:18;0.98;;;0.40;;
57655;SDS011;43482;53.334;6.744;2022-08-02T09:21:49;1.85;;;0.30;;
57655;SDS011;43482;53.334;6.744;2022-08-02T09:24:20;0.75;;;0.47;;
57655;SDS011;43482;53.334;6.744;2022-08-02T09:26:47;0.80;;;0.60;;
57655;SDS011;43482;53.334;6.744;2022-08-02T09:29:15;2.38;;;0.55;;
57655;SDS011;43482;53.334;6.744;2022-08-02T09:31:41;3.83;;;0.52;;
57655;SDS011;43482;53.334;6.744;2022-08-02T09:34:07;0.65;;;0.30;;
57655;SDS011;43482;53.334;6.744;2022-08-02T09:36:40;0.70;;;0.40;;
57655;SDS011;43482;53.334;6.744;2022-08-02T09:39:08;0.73;;;0.40;;
57655;SDS011;43482;53.334;6.744;2022-08-02T09:41:36;0.88;;;0.43;;
57655;SDS011;43482;53.334;6.744;2022-08-02T09:44:05;3.67;;;0.70;;
57655;SDS011;43482;53.334;6.744;2022-08-02T09:46:40;2.45;;;0.73;;
57655;SDS011;43482;53.334;6.744;2022-08-02T09:49:08;1.70;;;0.70;;
57655;SDS011;43482;53.334;6.744;2022-08-02T09:51:55;0.60;;;0.43;;
57655;SDS011;43482;53.334;6.744;2022-08-02T09:54:22;0.90;;;0.30;;
57655;SDS011;43482;53.334;6.744;2022-08-02T09:56:50;1.83;;;0.55;;
57655;SDS011;43482;53.334;6.744;2022-08-02T09:59:20;2.85;;;0.50;;
57655;SDS011;43482;53.334;6.744;2022-08-02T10:01:48;1.58;;;0.75;;
57655;SDS011;43482;53.334;6.744;2022-08-02T10:04:14;1.13;;;0.73;;
57655;SDS011;43482;53.334;6.744;2022-08-02T10:06:43;1.20;;;0.60;;
57655;SDS011;43482;53.334;6.744;2022-08-02T10:09:09;1.35;;;0.70;;
57655;SDS011;43482;53.334;6.744;2022-08-02T10:11:36;2.10;;;0.82;;
57655;SDS011;43482;53.334;6.744;2022-08-02T10:14:02;1.30;;;0.50;;
57655;SDS011;43482;53.334;6.744;2022-08-02T10:16:29;3.25;;;0.98;;
57655;SDS011;43482;53.334;6.744;2022-08-02T10:18:57;2.33;;;0.63;;
57655;SDS011;43482;53.334;6.744;2022-08-02T10:26:37;2.53;;;0.80;;
57655;SDS011;43482;53.334;6.744;2022-08-02T10:29:04;5.97;;;0.80;;
57655;SDS011;43482;53.334;6.744;2022-08-02T10:31:53;2.92;;;1.20;;
57655;SDS011;43482;53.334;6.744;2022-08-02T10:34:20;3.40;;;0.75;;
57655;SDS011;43482;53.334;6.744;2022-08-02T10:36:51;0.88;;;0.63;;
57655;SDS011;43482;53.334;6.744;2022-08-02T10:39:18;6.93;;;1.00;;
57655;SDS011;43482;53.334;6.744;2022-08-02T10:44:24;1.08;;;0.63;;
57655;SDS011;43482;53.334;6.744;2022-08-02T10:52:23;4.97;;;1.08;;
57655;SDS011;43482;53.334;6.744;2022-08-02T10:54:54;1.42;;;0.88;;
57655;SDS011;43482;53.334;6.744;2022-08-02T10:57:24;1.20;;;0.90;;
57655;SDS011;43482;53.334;6.744;2022-08-02T10:59:54;3.70;;;0.90;;
57655;SDS011;43482;53.334;6.744;2022-08-02T11:02:32;3.67;;;1.13;;
57655;SDS011;43482;53.334;6.744;2022-08-02T11:05:08;1.48;;;0.93;;
57655;SDS011;43482;53.334;6.744;2022-08-02T11:07:36;1.63;;;0.80;;
57655;SDS011;43482;53.334;6.744;2022-08-02T11:15:24;2.00;;;0.80;;
57655;SDS011;43482;53.334;6.744;2022-08-02T11:17:51;2.78;;;1.25;;
57655;SDS011;43482;53.334;6.744;2022-08-02T11:20:18;1.42;;;0.90;;
57655;SDS011;43482;53.334;6.744;2022-08-02T11:22:46;1.88;;;1.40;;
57655;SDS011;43482;53.334;6.744;2022-08-02T11:28:23;2.25;;;0.73;;
57655;SDS011;43482;53.334;6.744;2022-08-02T11:30:41;4.25;;;1.15;;
57655;SDS011;43482;53.334;6.744;2022-08-02T11:33:06;1.50;;;0.88;;
57655;SDS011;43482;53.334;6.744;2022-08-02T11:35:38;3.13;;;0.57;;
57655;SDS011;43482;53.334;6.744;2022-08-02T11:38:17;1.60;;;0.85;;
57655;SDS011;43482;53.334;6.744;2022-08-02T11:40:44;4.75;;;1.10;;
57655;SDS011;43482;53.334;6.744;2022-08-02T11:43:14;2.80;;;1.38;;
57655;SDS011;43482;53.334;6.744;2022-08-02T11:45:44;0.88;;;0.70;;
57655;SDS011;43482;53.334;6.744;2022-08-02T11:48:10;4.65;;;1.30;;
57655;SDS011;43482;53.334;6.744;2022-08-02T11:50:36;1.58;;;0.82;;
57655;SDS011;43482;53.334;6.744;2022-08-02T11:53:01;2.15;;;1.20;;
57655;SDS011;43482;53.334;6.744;2022-08-02T11:55:36;1.70;;;0.90;;
57655;SDS011;43482;53.334;6.744;2022-08-02T11:58:03;2.63;;;1.25;;
57655;SDS011;43482;53.334;6.744;2022-08-02T12:00:31;3.00;;;0.97;;
57655;SDS011;43482;53.334;6.744;2022-08-02T12:02:57;2.10;;;1.05;;
57655;SDS011;43482;53.334;6.744;2022-08-02T12:05:23;2.03;;;0.80;;
57655;SDS011;43482;53.334;6.744;2022-08-02T12:07:49;1.92;;;0.80;;
57655;SDS011;43482;53.334;6.744;2022-08-02T12:10:19;1.52;;;0.85;;
57655;SDS011;43482;53.334;6.744;2022-08-02T12:12:49;1.67;;;1.05;;
57655;SDS011;43482;53.334;6.744;2022-08-02T12:15:35;4.13;;;1.00;;
57655;SDS011;43482;53.334;6.744;2022-08-02T12:18:02;3.13;;;1.20;;
57655;SDS011;43482;53.334;6.744;2022-08-02T12:20:51;1.83;;;1.00;;
57655;SDS011;43482;53.334;6.744;2022-08-02T12:23:17;2.28;;;1.00;;
57655;SDS011;43482;53.334;6.744;2022-08-02T12:25:42;3.83;;;1.20;;
57655;SDS011;43482;53.334;6.744;2022-08-02T12:28:15;2.35;;;0.90;;
57655;SDS011;43482;53.334;6.744;2022-08-02T12:30:51;3.20;;;1.40;;
57655;SDS011;43482;53.334;6.744;2022-08-02T12:33:22;3.20;;;0.90;;
57655;SDS011;43482;53.334;6.744;2022-08-02T12:35:49;1.00;;;0.63;;
57655;SDS011;43482;53.334;6.744;2022-08-02T12:38:14;3.75;;;0.80;;
57655;SDS011;43482;53.334;6.744;2022-08-02T12:40:40;2.38;;;0.93;;
57655;SDS011;43482;53.334;6.744;2022-08-02T12:43:06;1.65;;;1.02;;
57655;SDS011;43482;53.334;6.744;2022-08-02T12:45:50;1.65;;;0.88;;
57655;SDS011;43482;53.334;6.744;2022-08-02T12:48:33;1.50;;;1.05;;
57655;SDS011;43482;53.334;6.744;2022-08-02T12:51:24;2.15;;;0.93;;
57655;SDS011;43482;53.334;6.744;2022-08-02T12:53:52;2.95;;;1.17;;
57655;SDS011;43482;53.334;6.744;2022-08-02T12:56:32;1.63;;;0.90;;
57655;SDS011;43482;53.334;6.744;2022-08-02T12:59:00;2.70;;;1.33;;
57655;SDS011;43482;53.334;6.744;2022-08-02T13:01:27;2.42;;;0.82;;
57655;SDS011;43482;53.334;6.744;2022-08-02T13:03:53;2.15;;;1.50;;
57655;SDS011;43482;53.334;6.744;2022-08-02T13:06:19;1.33;;;0.73;;
57655;SDS011;43482;53.334;6.744;2022-08-02T13:08:45;3.00;;;1.08;;
57655;SDS011;43482;53.334;6.744;2022-08-02T13:11:12;1.92;;;0.98;;
57655;SDS011;43482;53.334;6.744;2022-08-02T13:13:38;3.85;;;1.30;;
57655;SDS011;43482;53.334;6.744;2022-08-02T13:16:03;2.97;;;1.45;;
57655;SDS011;43482;53.334;6.744;2022-08-02T13:18:29;3.25;;;1.30;;
57655;SDS011;43482;53.334;6.744;2022-08-02T13:20:54;2.10;;;1.30;;
57655;SDS011;43482;53.334;6.744;2022-08-02T13:23:20;4.18;;;1.75;;
57655;SDS011;43482;53.334;6.744;2022-08-02T13:25:45;2.70;;;1.23;;
57655;SDS011;43482;53.334;6.744;2022-08-02T13:28:10;4.85;;;1.33;;
57655;SDS011;43482;53.334;6.744;2022-08-02T13:30:36;1.65;;;1.15;;
57655;SDS011;43482;53.334;6.744;2022-08-02T13:33:02;2.22;;;1.20;;
57655;SDS011;43482;53.334;6.744;2022-08-02T13:35:27;2.63;;;1.17;;
57655;SDS011;43482;53.334;6.744;2022-08-02T13:37:53;3.40;;;1.15;;
57655;SDS011;43482;53.334;6.744;2022-08-02T13:40:20;5.88;;;1.70;;
57655;SDS011;43482;53.334;6.744;2022-08-02T13:42:46;2.42;;;1.45;;
57655;SDS011;43482;53.334;6.744;2022-08-02T13:45:11;2.10;;;1.40;;
57655;SDS011;43482;53.334;6.744;2022-08-02T13:47:37;3.65;;;1.60;;
57655;SDS011;43482;53.334;6.744;2022-08-02T13:50:04;1.55;;;1.08;;
57655;SDS011;43482;53.334;6.744;2022-08-02T13:52:30;1.98;;;1.10;;
57655;SDS011;43482;53.334;6.744;2022-08-02T13:54:56;2.92;;;1.98;;
57655;SDS011;43482;53.334;6.744;2022-08-02T13:57:21;2.63;;;1.25;;
57655;SDS011;43482;53.334;6.744;2022-08-02T13:59:46;3.88;;;1.83;;
57655;SDS011;43482;53.334;6.744;2022-08-02T14:02:12;1.65;;;0.98;;
57655;SDS011;43482;53.334;6.744;2022-08-02T14:04:37;1.83;;;1.25;;
57655;SDS011;43482;53.334;6.744;2022-08-02T14:07:03;1.25;;;0.95;;
57655;SDS011;43482;53.334;6.744;2022-08-02T14:09:28;1.88;;;0.90;;
57655;SDS011;43482;53.334;6.744;2022-08-02T14:11:56;3.70;;;1.52;;
57655;SDS011;43482;53.334;6.744;2022-08-02T14:14:24;2.30;;;1.30;;
57655;SDS011;43482;53.334;6.744;2022-08-02T14:16:51;2.15;;;1.52;;
57655;SDS011;43482;53.334;6.744;2022-08-02T14:19:17;2.83;;;1.30;;
57655;SDS011;43482;53.334;6.744;2022-08-02T14:21:45;2.70;;;1.63;;
57655;SDS011;43482;53.334;6.744;2022-08-02T14:24:11;2.55;;;1.55;;
57655;SDS011;43482;53.334;6.744;2022-08-02T14:26:36;3.17;;;1.40;;
57655;SDS011;43482;53.334;6.744;2022-08-02T14:29:02;5.05;;;1.60;;
57655;SDS011;43482;53.334;6.744;2022-08-02T14:31:28;3.00;;;1.92;;
57655;SDS011;43482;53.334;6.744;2022-08-02T14:33:53;2.28;;;1.60;;
57655;SDS011;43482;53.334;6.744;2022-08-02T14:36:18;2.67;;;2.05;;
57655;SDS011;43482;53.334;6.744;2022-08-02T14:38:44;3.00;;;2.03;;
57655;SDS011;43482;53.334;6.744;2022-08-02T14:41:09;2.33;;;1.70;;
57655;SDS011;43482;53.334;6.744;2022-08-02T14:43:35;1.58;;;1.30;;
57655;SDS011;43482;53.334;6.744;2022-08-02T14:46:18;3.35;;;2.13;;
57655;SDS011;43482;53.334;6.744;2022-08-02T14:48:44;3.90;;;1.80;;
57655;SDS011;43482;53.334;6.744;2022-08-02T14:51:09;2.85;;;1.92;;
57655;SDS011;43482;53.334;6.744;2022-08-02T14:53:37;3.10;;;1.85;;
57655;SDS011;43482;53.334;6.744;2022-08-02T14:56:03;2.78;;;1.17;;
57655;SDS011;43482;53.334;6.744;2022-08-02T14:58:28;2.42;;;1.52;;
57655;SDS011;43482;53.334;6.744;2022-08-02T15:00:53;3.28;;;2.17;;
57655;SDS011;43482;53.334;6.744;2022-08-02T15:03:19;4.18;;;2.13;;
57655;SDS011;43482;53.334;6.744;2022-08-02T15:05:44;3.65;;;2.30;;
57655;SDS011;43482;53.334;6.744;2022-08-02T15:08:09;3.50;;;1.98;;
57655;SDS011;43482;53.334;6.744;2022-08-02T15:10:35;3.25;;;2.03;;
57655;SDS011;43482;53.334;6.744;2022-08-02T15:13:00;4.35;;;1.83;;
57655;SDS011;43482;53.334;6.744;2022-08-02T15:15:25;4.93;;;2.00;;
57655;SDS011;43482;53.334;6.744;2022-08-02T15:17:51;4.75;;;1.77;;
57655;SDS011;43482;53.334;6.744;2022-08-02T15:20:17;4.10;;;2.50;;
57655;SDS011;43482;53.334;6.744;2022-08-02T15:22:43;3.08;;;2.38;;
57655;SDS011;43482;53.334;6.744;2022-08-02T15:25:08;3.33;;;2.15;;
57655;SDS011;43482;53.334;6.744;2022-08-02T15:27:34;5.32;;;2.20;;
57655;SDS011;43482;53.334;6.744;2022-08-02T15:29:59;3.38;;;2.13;;
57655;SDS011;43482;53.334;6.744;2022-08-02T15:32:24;3.08;;;2.13;;
57655;SDS011;43482;53.334;6.744;2022-08-02T15:34:50;3.22;;;1.92;;
57655;SDS011;43482;53.334;6.744;2022-08-02T15:37:16;3.50;;;2.20;;
57655;SDS011;43482;53.334;6.744;2022-08-02T15:39:42;3.70;;;2.10;;